Aérodrome :
LOGIN :

S'inscrire | Disclaimer

   EN    FR    IT 

 










Légende :    VFR   VFR Marginal   IFR   IFR Intensif   IFR Très Intensif
Visi : 
Plafond : 
>= 8 km
>= 3000ft
5 à 8 km
1000 à 3000 ft
1500m à 5 km
500 à 1000 ft
800 à 1500m
200 à 500 ft
< 800m
< 200 ft
Symboles :   Orages  Brouillard  Fortes neiges  Fortes précipitations  Vent > 20 kt
SIGMETs :   Divers  Orages  Givrage  Turbulence  Onde Orograph.  Cendres Volcan.







- Altitude de l'aérodrome : 53 ft
- Code IATA : HAM


EDDH - Hamburg

DERNIER METAR :
  • 221750Z 09007KT CAVOK 21/07 Q1009 NOSIG

METARs EXPIRÉS :
  • 221720Z 10008KT 070V130 CAVOK 21/07 Q1009 NOSIG
  • 221650Z 11009KT 080V140 CAVOK 21/06 Q1010 NOSIG
  • 221620Z 13011KT 090V150 CAVOK 21/07 Q1010 NOSIG
  • 221550Z 11010KT 080V140 CAVOK 21/07 Q1010 NOSIG
  • 221520Z 12010KT CAVOK 21/06 Q1010 NOSIG

TAF TAF EDDH
Valide du 22 à 18h jusqu'au 24 à 00h UTC


221700Z 2218/2324 13012KT CAVOK
BECMG 2218/2220 16006KT
TEMPO 2220/2303 23015G30KT TSRA BKN030CB
PROB30
TEMPO 2220/2224 24020G40KT 2500 TSGR BKN012CB
BECMG 2222/2301 22006KT
PROB30
TEMPO 2300/2306 4500 -RA BKN012
BECMG 2306/2309 27012KT
TEMPO 2308/2317 28015G25KT
BECMG 2318/2320 27007KT
Pas de NOTAMs connus pour ce terrain.
2 SIGMETs publiés pour la FIR Bremen (EDWW) :
 
Orages fréquents avec grêle
EDWW SIGMET 2 VALID 221730/221900 EDZH
EDWW BREMEN FIR FRQ TSGR FCST WI N5335 E00636 - N5333 E00751 - N5216 E00732 - N5140 E00711 - N5131 E00550 - N5248 E00701 - N5335 E00636 TOP FL370 MOV NE 30KT WKN=
Orages fréquents avec grêle
EDWW SIGMET 1 VALID 221650/221830 EDZH
EDWW BREMEN FIR FRQ TSGR FCST WI N5222 E01000 - N5129 E01025 - N5120 E00955 - N5121 E00908 - N5220 E00907 - N5222 E01000 TOP FL370 MOV NE 30KT WKN=



MET'MAP, la Météo Aéronautique d'un coup d'oeil ! - Copyright ORBIFLY Décembre 2007 - Disclaimer

ORBIFLY MET'MAP TEAM :

Programmation & Développement : Alexandra Zaïnal
Conception & Développement : Baudouin d'Aumeries
Co-Programmation & Développement : Marc-Olivier Méhu
Soutien technique & logistique : Manuel Goepfert

Contact : metmap@orbifly.com




SOURCES & CREDITS :

   NOAA